Altoona, Pennsylvania
Current Conditions -  °F | °C
As of 7:53 PM on Wednesday 22 Oct 2014 (Local Time) from KAOO Reporting Station
Overcast Overcast  
Wind Chill: 41°   Ceiling: 2100
Heat Index: 48°   Visibility: 10mi
Dew Point: 41°   Wind: 21mph
Humidity: 77%   Direction: 350°N
Pressure: 30.08"   Gusts: 30mph
Location:  40.51°N, 78.4°W
Report Text: KAOO 222353Z AUTO 35018G26KT 10SM OVC021 09/05 A3008 RMK AO2 PK WND 36027/2322 SLP191 T00890050 10111 20089 53006
Loading
Personal Weather Stations






























Interactive Weather Map
Tropical Storm Tracking
New forecast layout! Learn more

10-Day Weather Forecast

Advertisements
Track Severe Weather on mobile